createdAt,value
2018-01-04T00:02:00.073Z,7.47
2018-01-04T00:04:28.543Z,8.57
2018-01-04T00:06:56.876Z,12.40
2018-01-04T00:09:26.697Z,16.63
2018-01-04T00:11:55.795Z,14.53
2018-01-04T00:14:24.896Z,14.17
2018-01-04T00:16:54.006Z,12.83
2018-01-04T00:19:22.348Z,11.43
2018-01-04T00:21:50.754Z,12.83
2018-01-04T00:24:19.151Z,10.13
2018-01-04T00:26:47.488Z,8.83
2018-01-04T00:29:15.835Z,9.27
2018-01-04T00:31:44.160Z,8.07
2018-01-04T00:34:13.287Z,11.00
2018-01-04T00:36:41.624Z,9.10
2018-01-04T00:39:10.015Z,7.83
2018-01-04T00:41:38.367Z,9.67
2018-01-04T00:44:06.760Z,8.90
2018-01-04T00:46:35.140Z,10.53
2018-01-04T00:49:04.246Z,11.47
2018-01-04T00:51:33.874Z,9.90
2018-01-04T00:54:02.983Z,14.70
2018-01-04T00:56:31.364Z,10.07
2018-01-04T00:58:59.718Z,11.70
2018-01-04T01:01:28.063Z,12.23
2018-01-04T01:03:56.815Z,12.77
2018-01-04T01:06:25.197Z,9.93
2018-01-04T01:08:53.716Z,12.63
2018-01-04T01:11:22.073Z,11.27
2018-01-04T01:13:50.413Z,15.97
2018-01-04T01:16:18.768Z,12.57
2018-01-04T01:18:47.909Z,10.93
2018-01-04T01:21:16.297Z,12.23
2018-01-04T01:23:44.639Z,12.47
2018-01-04T01:26:13.740Z,12.43
2018-01-04T01:28:42.111Z,13.30
2018-01-04T01:31:10.513Z,9.30
2018-01-04T01:33:38.869Z,12.50
2018-01-04T01:36:07.988Z,17.73
2018-01-04T01:38:36.380Z,10.57
2018-01-04T01:41:04.742Z,9.80
2018-01-04T01:43:33.066Z,12.20
2018-01-04T01:46:01.398Z,13.13
2018-01-04T01:48:29.739Z,13.50
2018-01-04T01:50:58.073Z,19.53
2018-01-04T01:53:26.429Z,13.97
2018-01-04T01:55:54.762Z,15.77
2018-01-04T01:58:23.092Z,16.53
2018-01-04T02:00:51.446Z,17.50
2018-01-04T02:03:20.572Z,15.37
2018-01-04T02:05:48.945Z,19.23
2018-01-04T02:08:17.335Z,17.83
2018-01-04T02:10:45.695Z,25.37
2018-01-04T02:13:14.801Z,23.67
2018-01-04T02:15:43.167Z,20.40
2018-01-04T02:18:23.363Z,19.63
2018-01-04T02:21:03.749Z,23.23
2018-01-04T02:23:44.024Z,19.87
2018-01-04T02:26:25.060Z,21.33
2018-01-04T02:28:57.015Z,21.80
2018-01-04T02:31:37.231Z,24.10
2018-01-04T02:34:18.144Z,26.67
2018-01-04T02:36:58.481Z,24.53
2018-01-04T02:39:38.672Z,18.97
2018-01-04T02:45:21.909Z,23.30
2018-01-04T02:47:50.237Z,23.67
2018-01-04T02:50:19.423Z,20.00
2018-01-04T02:52:48.603Z,22.60
2018-01-04T02:55:16.976Z,22.40
2018-01-04T02:57:45.301Z,20.03
2018-01-04T03:00:14.473Z,17.20
2018-01-04T03:02:42.776Z,22.47
2018-01-04T03:05:11.868Z,21.07
2018-01-04T03:07:40.236Z,14.33
2018-01-04T03:10:09.350Z,18.30
2018-01-04T03:12:38.462Z,20.50
2018-01-04T03:15:06.972Z,15.97
2018-01-04T03:17:35.321Z,17.43
2018-01-04T03:20:03.717Z,26.03
2018-01-04T03:22:37.775Z,21.93
2018-01-04T03:25:11.879Z,18.43
2018-01-04T03:27:46.620Z,17.27
2018-01-04T03:30:20.637Z,19.00
2018-01-04T03:32:55.387Z,20.50
2018-01-04T03:35:29.588Z,19.23
2018-01-04T03:38:04.430Z,18.20
2018-01-04T03:40:39.239Z,18.87
2018-01-04T03:43:14.098Z,13.80
2018-01-04T03:48:47.103Z,17.33
2018-01-04T03:51:21.111Z,15.70
2018-01-04T03:53:55.840Z,18.83
2018-01-04T03:56:30.844Z,19.50
2018-01-04T03:59:04.877Z,17.27
2018-01-04T04:04:36.933Z,21.87
2018-01-04T04:07:10.959Z,23.93
2018-01-04T04:09:40.090Z,13.70
2018-01-04T04:12:08.484Z,21.73
2018-01-04T04:14:36.836Z,20.93
2018-01-04T04:17:05.182Z,14.97
2018-01-04T04:19:33.510Z,22.00
2018-01-04T04:22:02.093Z,21.10
2018-01-04T04:24:31.164Z,19.57
2018-01-04T04:26:59.545Z,19.43
2018-01-04T04:29:28.632Z,19.10
2018-01-04T04:31:57.938Z,20.07
2018-01-04T04:34:27.060Z,22.47
2018-01-04T04:36:55.418Z,19.70
2018-01-04T04:39:24.660Z,21.50
2018-01-04T04:41:53.023Z,22.80
2018-01-04T04:44:21.419Z,26.00
2018-01-04T04:46:50.486Z,20.50
2018-01-04T04:51:52.623Z,24.43
2018-01-04T04:54:20.951Z,21.53
2018-01-04T04:56:49.288Z,23.07
2018-01-04T04:59:17.611Z,24.57
2018-01-04T05:01:45.950Z,19.50
2018-01-04T05:04:14.337Z,18.37
2018-01-04T05:06:42.726Z,16.90
2018-01-04T05:09:11.828Z,25.30
2018-01-04T05:11:40.171Z,26.73
2018-01-04T05:14:08.561Z,24.77
2018-01-04T05:16:36.924Z,30.67
2018-01-04T05:19:05.261Z,25.10
2018-01-04T05:21:34.483Z,23.90
2018-01-04T05:24:02.802Z,14.40
2018-01-04T05:26:31.915Z,20.77
2018-01-04T05:29:01.029Z,24.20
2018-01-04T05:31:29.376Z,24.37
2018-01-04T05:33:57.808Z,16.70
2018-01-04T05:36:26.161Z,18.03
2018-01-04T05:38:54.495Z,18.60
2018-01-04T05:41:22.843Z,20.33
2018-01-04T05:43:51.209Z,27.50
2018-01-04T05:46:19.645Z,21.77
2018-01-04T05:48:47.981Z,23.13
2018-01-04T05:51:16.356Z,23.97
2018-01-04T05:53:44.775Z,20.97
2018-01-04T05:56:13.213Z,24.03
2018-01-04T05:58:41.613Z,22.13
2018-01-04T06:01:10.055Z,22.67
2018-01-04T06:03:38.438Z,28.60
2018-01-04T06:06:06.820Z,20.30
2018-01-04T06:08:35.200Z,23.67
2018-01-04T06:11:03.534Z,23.27
2018-01-04T06:13:31.875Z,22.17
2018-01-04T06:16:00.207Z,21.73
2018-01-04T06:18:29.340Z,27.10
2018-01-04T06:20:57.676Z,20.30
2018-01-04T06:23:26.790Z,24.63
2018-01-04T06:25:55.961Z,21.00
2018-01-04T06:28:24.278Z,20.80
2018-01-04T06:30:52.611Z,17.90
2018-01-04T06:33:20.931Z,23.90
2018-01-04T06:35:49.318Z,22.47
2018-01-04T06:38:18.421Z,30.37
2018-01-04T06:40:46.792Z,28.03
2018-01-04T06:43:15.136Z,23.27
2018-01-04T06:45:43.468Z,24.07
2018-01-04T06:48:11.821Z,25.67
2018-01-04T06:50:40.188Z,28.73
2018-01-04T06:53:09.317Z,32.13
2018-01-04T06:55:37.791Z,31.20
2018-01-04T06:58:06.285Z,25.73
2018-01-04T07:00:34.665Z,25.80
2018-01-04T07:03:02.967Z,24.73
2018-01-04T07:05:31.341Z,30.87
2018-01-04T07:07:59.659Z,28.23
2018-01-04T07:10:28.776Z,37.30
2018-01-04T07:12:57.123Z,25.37
2018-01-04T07:15:26.305Z,25.50
2018-01-04T07:17:54.640Z,22.27
2018-01-04T07:20:23.013Z,26.83
2018-01-04T07:22:51.387Z,38.87
2018-01-04T07:25:19.915Z,30.23
2018-01-04T07:27:48.227Z,32.03
2018-01-04T07:30:16.576Z,23.63
2018-01-04T07:32:44.910Z,24.50
2018-01-04T07:35:13.297Z,26.73
2018-01-04T07:37:41.624Z,31.97
2018-01-04T07:40:09.952Z,24.60
2018-01-04T07:42:38.296Z,37.37
2018-01-04T07:45:07.441Z,28.50
2018-01-04T07:47:35.911Z,25.80
2018-01-04T07:50:04.256Z,32.87
2018-01-04T07:52:33.379Z,29.60
2018-01-04T07:55:01.711Z,28.83
2018-01-04T07:57:30.045Z,23.57
2018-01-04T07:59:58.437Z,22.47
2018-01-04T08:02:26.796Z,30.77
2018-01-04T08:04:55.120Z,30.37
2018-01-04T08:07:23.762Z,24.63
2018-01-04T08:09:52.159Z,32.23
2018-01-04T08:12:20.552Z,23.43
2018-01-04T08:14:48.960Z,30.43
2018-01-04T08:17:18.060Z,30.37
2018-01-04T08:19:47.158Z,26.13
2018-01-04T08:22:16.340Z,21.57
2018-01-04T08:24:44.682Z,30.40
2018-01-04T08:27:13.014Z,24.87
2018-01-04T08:29:42.131Z,21.80
2018-01-04T08:32:10.469Z,21.60
2018-01-04T08:34:38.795Z,27.90
2018-01-04T08:37:07.136Z,20.20
2018-01-04T08:39:35.565Z,23.80
2018-01-04T08:42:03.952Z,25.70
2018-01-04T08:44:32.291Z,27.07
2018-01-04T08:47:00.684Z,29.87
2018-01-04T08:49:29.089Z,30.17
2018-01-04T08:51:57.418Z,27.93
2018-01-04T08:54:26.558Z,22.07
2018-01-04T08:56:54.884Z,28.73
2018-01-04T08:59:23.211Z,29.37
2018-01-04T09:01:51.552Z,27.67
2018-01-04T09:04:20.669Z,29.00
2018-01-04T09:06:49.059Z,24.27
2018-01-04T09:09:17.390Z,36.07
2018-01-04T09:11:45.936Z,32.47
2018-01-04T09:14:14.377Z,33.77
2018-01-04T09:16:43.506Z,35.20
2018-01-04T09:19:11.852Z,31.70
2018-01-04T09:21:40.963Z,37.73
2018-01-04T09:24:09.326Z,27.87
2018-01-04T09:26:38.443Z,33.93
2018-01-04T09:29:06.770Z,33.17
2018-01-04T09:31:35.287Z,35.87
2018-01-04T09:34:04.400Z,31.67
2018-01-04T09:36:33.542Z,30.60
2018-01-04T09:39:01.884Z,28.47
2018-01-04T09:41:30.217Z,31.30
2018-01-04T09:43:58.651Z,31.80
2018-01-04T09:46:27.036Z,38.43
2018-01-04T09:48:55.513Z,29.50
2018-01-04T09:51:23.834Z,34.43
2018-01-04T09:53:52.389Z,40.77
2018-01-04T09:56:20.740Z,30.70
2018-01-04T09:58:49.070Z,36.23
2018-01-04T10:01:17.718Z,34.87
2018-01-04T10:03:46.063Z,32.47
2018-01-04T10:06:14.384Z,34.60
2018-01-04T10:08:42.732Z,33.60
2018-01-04T10:11:11.854Z,27.37
2018-01-04T10:13:40.208Z,36.17
2018-01-04T10:16:08.561Z,29.27
2018-01-04T10:18:36.951Z,43.17
2018-01-04T10:21:05.306Z,31.07
2018-01-04T10:23:33.740Z,36.40
2018-01-04T10:26:02.086Z,31.40
2018-01-04T10:28:30.434Z,32.40
2018-01-04T10:30:58.878Z,37.70
2018-01-04T10:33:27.245Z,34.33
2018-01-04T10:35:55.583Z,32.70
2018-01-04T10:38:23.924Z,33.37
2018-01-04T10:40:52.265Z,32.07
2018-01-04T10:43:21.401Z,28.67
2018-01-04T10:45:49.736Z,32.90
2018-01-04T10:48:18.839Z,38.57
2018-01-04T10:50:47.198Z,32.97
2018-01-04T10:53:15.553Z,31.03
2018-01-04T10:55:43.924Z,27.77
2018-01-04T10:58:12.268Z,36.87
2018-01-04T11:00:40.609Z,34.67
2018-01-04T11:03:08.954Z,33.60
2018-01-04T11:05:37.288Z,36.13
2018-01-04T11:08:06.413Z,39.87
2018-01-04T11:10:34.796Z,38.73
2018-01-04T11:13:03.120Z,39.03
2018-01-04T11:15:31.487Z,36.90
2018-01-04T11:17:59.898Z,37.83
2018-01-04T11:20:29.000Z,39.50
2018-01-04T11:22:57.390Z,34.97
2018-01-04T11:25:25.754Z,30.80
2018-01-04T11:27:54.171Z,36.50
2018-01-04T11:30:22.508Z,32.53
2018-01-04T11:32:51.606Z,24.87
2018-01-04T11:35:20.715Z,41.00
2018-01-04T11:37:49.903Z,36.53
2018-01-04T11:40:18.300Z,38.73
2018-01-04T11:42:46.799Z,32.80
2018-01-04T11:45:15.131Z,36.97
2018-01-04T11:47:44.235Z,38.83
2018-01-04T11:50:13.467Z,40.50
2018-01-04T11:52:41.826Z,33.47
2018-01-04T11:55:10.158Z,35.50
2018-01-04T11:57:38.632Z,38.50
2018-01-04T12:00:06.965Z,33.33
2018-01-04T12:02:35.364Z,36.23
2018-01-04T12:05:03.696Z,45.57
2018-01-04T12:07:32.083Z,36.30
2018-01-04T12:10:01.218Z,35.17
2018-01-04T12:12:29.549Z,30.40
2018-01-04T12:14:58.681Z,37.10
2018-01-04T12:17:27.035Z,32.57
2018-01-04T12:19:56.183Z,38.97
2018-01-04T12:22:24.546Z,53.77
2018-01-04T12:24:52.884Z,31.73
2018-01-04T12:27:22.005Z,36.63
2018-01-04T12:29:50.398Z,36.70
2018-01-04T12:32:18.775Z,33.73
2018-01-04T12:34:47.116Z,37.17
2018-01-04T12:37:16.248Z,33.43
2018-01-04T12:39:44.623Z,43.17
2018-01-04T12:42:12.976Z,31.60
2018-01-04T12:44:42.107Z,39.27
2018-01-04T12:47:10.490Z,36.43
2018-01-04T12:49:38.872Z,30.43
2018-01-04T12:52:07.246Z,47.57
2018-01-04T12:54:35.653Z,33.93
2018-01-04T12:57:03.999Z,40.87
2018-01-04T12:59:32.341Z,33.07
2018-01-04T13:02:00.754Z,38.97
2018-01-04T13:04:29.115Z,35.80
2018-01-04T13:06:57.439Z,29.47
2018-01-04T13:09:25.790Z,28.17
2018-01-04T13:11:54.139Z,44.80
2018-01-04T13:14:23.328Z,45.77
2018-01-04T13:16:51.741Z,31.20
2018-01-04T13:19:20.127Z,30.40
2018-01-04T13:21:48.503Z,31.07
2018-01-04T13:24:16.862Z,41.13
2018-01-04T13:26:46.186Z,28.30
2018-01-04T13:29:14.668Z,35.37
2018-01-04T13:31:43.006Z,34.70
2018-01-04T13:34:11.352Z,37.20
2018-01-04T13:36:39.832Z,29.40
2018-01-04T13:39:08.179Z,30.27
2018-01-04T13:41:36.600Z,29.17
2018-01-04T13:44:04.931Z,29.87
2018-01-04T13:46:33.530Z,31.13
2018-01-04T13:49:01.855Z,32.50
2018-01-04T13:51:30.257Z,26.27
2018-01-04T13:53:59.351Z,33.73
2018-01-04T13:56:28.469Z,30.37
2018-01-04T13:58:56.804Z,25.57
2018-01-04T14:01:25.236Z,31.87
2018-01-04T14:03:53.616Z,27.80
2018-01-04T14:06:21.963Z,25.17
2018-01-04T14:08:51.068Z,30.10
2018-01-04T14:11:20.208Z,29.43
2018-01-04T14:13:49.070Z,26.43
2018-01-04T14:16:17.456Z,34.43
2018-01-04T14:18:45.802Z,36.90
2018-01-04T14:21:14.241Z,24.70
2018-01-04T14:23:42.634Z,23.00
2018-01-04T14:26:11.762Z,24.23
2018-01-04T14:28:40.890Z,29.67
2018-01-04T14:31:09.284Z,32.60
2018-01-04T14:33:37.811Z,20.77
2018-01-04T14:36:06.127Z,24.10
2018-01-04T14:38:34.474Z,23.93
2018-01-04T14:41:02.822Z,29.43
2018-01-04T14:43:31.199Z,26.07
2018-01-04T14:45:59.728Z,30.17
2018-01-04T14:48:28.916Z,27.93
2018-01-04T14:50:57.330Z,25.47
2018-01-04T14:53:25.696Z,26.87
2018-01-04T14:55:54.100Z,34.83
2018-01-04T14:58:22.446Z,26.70
2018-01-04T15:00:50.779Z,22.37
2018-01-04T15:03:19.112Z,29.73
2018-01-04T15:05:47.460Z,31.47
2018-01-04T15:08:15.848Z,29.47
2018-01-04T15:10:44.239Z,31.37
2018-01-04T15:13:12.839Z,23.57
2018-01-04T15:15:42.039Z,32.10
2018-01-04T15:18:10.470Z,25.07
2018-01-04T15:20:38.804Z,23.87
2018-01-04T15:23:07.191Z,22.87
2018-01-04T15:25:35.556Z,22.57
2018-01-04T15:28:03.971Z,22.03
2018-01-04T15:30:32.296Z,20.43
2018-01-04T15:33:01.415Z,20.50
2018-01-04T15:35:29.888Z,26.67
2018-01-04T15:37:59.052Z,26.43
2018-01-04T15:40:28.332Z,27.10
2018-01-04T15:42:56.656Z,22.00
2018-01-04T15:45:24.992Z,27.73
2018-01-04T15:47:53.430Z,22.23
2018-01-04T15:50:21.773Z,19.23
2018-01-04T15:52:50.154Z,19.57
2018-01-04T15:55:19.268Z,16.53
2018-01-04T15:57:47.641Z,27.07
2018-01-04T16:00:16.026Z,20.03
2018-01-04T16:02:45.214Z,24.00
2018-01-04T16:05:13.598Z,17.63
2018-01-04T16:07:42.841Z,19.17
2018-01-04T16:10:11.199Z,19.00
2018-01-04T16:12:39.568Z,26.13
2018-01-04T16:15:07.997Z,25.20
2018-01-04T16:17:36.356Z,20.80
2018-01-04T16:20:04.696Z,28.20
2018-01-04T16:22:33.860Z,14.63
2018-01-04T16:25:02.181Z,23.30
2018-01-04T16:27:30.529Z,23.00
2018-01-04T16:29:58.884Z,23.97
2018-01-04T16:32:27.241Z,18.57
2018-01-04T16:34:55.600Z,17.70
2018-01-04T16:37:23.944Z,19.37
2018-01-04T16:39:52.296Z,15.20
2018-01-04T16:42:20.780Z,15.77
2018-01-04T16:44:49.125Z,17.00
2018-01-04T16:47:17.546Z,14.90
2018-01-04T16:49:45.884Z,11.37
2018-01-04T16:52:14.424Z,14.23
2018-01-04T16:54:42.773Z,15.77
2018-01-04T16:57:11.127Z,10.37
2018-01-04T16:59:39.625Z,16.67
2018-01-04T17:02:08.026Z,9.23
2018-01-04T17:04:36.368Z,8.33
2018-01-04T17:07:04.774Z,11.70
2018-01-04T17:09:33.292Z,12.37
2018-01-04T17:12:02.427Z,13.00
2018-01-04T17:14:30.764Z,12.93
2018-01-04T17:16:59.929Z,9.33
2018-01-04T17:19:28.262Z,19.70
2018-01-04T17:21:57.373Z,17.47
2018-01-04T17:24:25.752Z,11.87
2018-01-04T17:26:54.139Z,16.10
2018-01-04T17:29:22.529Z,13.23
2018-01-04T17:31:50.852Z,15.60
2018-01-04T17:34:19.991Z,13.93
2018-01-04T17:36:48.382Z,13.60
2018-01-04T17:39:16.739Z,12.50
2018-01-04T17:41:45.328Z,11.37
2018-01-04T17:44:13.765Z,12.80
2018-01-04T17:46:42.125Z,12.77
2018-01-04T17:49:10.522Z,9.87
2018-01-04T17:51:38.896Z,9.87
2018-01-04T17:54:07.325Z,5.57
2018-01-04T17:56:35.674Z,9.27
2018-01-04T17:59:04.100Z,9.30
2018-01-04T18:01:32.463Z,7.93
2018-01-04T18:04:00.971Z,8.73
2018-01-04T18:06:29.340Z,5.30
2018-01-04T18:08:57.935Z,6.90
2018-01-04T18:11:26.303Z,7.90
2018-01-04T18:13:54.886Z,4.97
2018-01-04T18:16:23.260Z,4.53
2018-01-04T18:18:51.773Z,5.23
2018-01-04T18:21:20.121Z,8.43
2018-01-04T18:23:48.508Z,5.37
2018-01-04T18:26:16.830Z,4.77
2018-01-04T18:28:45.246Z,6.17
2018-01-04T18:31:13.588Z,4.60
2018-01-04T18:33:41.939Z,5.50
2018-01-04T18:36:10.537Z,5.90
2018-01-04T18:38:38.885Z,5.87
2018-01-04T18:41:07.231Z,8.53
2018-01-04T18:43:36.410Z,5.43
2018-01-04T18:46:04.759Z,5.93
2018-01-04T18:48:33.351Z,6.27
2018-01-04T18:51:01.844Z,8.73
2018-01-04T18:53:30.241Z,7.90
2018-01-04T18:55:59.468Z,10.03
2018-01-04T18:58:27.943Z,13.53
2018-01-04T19:00:56.539Z,8.87
2018-01-04T19:03:25.243Z,9.90
2018-01-04T19:05:53.647Z,11.53
2018-01-04T19:08:22.019Z,11.47
2018-01-04T19:10:50.476Z,9.33
2018-01-04T19:13:19.305Z,8.80
2018-01-04T19:15:47.946Z,8.73
2018-01-04T19:18:17.183Z,7.87
2018-01-04T19:20:45.708Z,9.63
2018-01-04T19:23:14.800Z,10.47
2018-01-04T19:25:43.941Z,9.33
2018-01-04T19:28:12.309Z,9.67
2018-01-04T19:30:40.770Z,8.97
2018-01-04T19:33:09.933Z,9.70
2018-01-04T19:35:38.295Z,9.00
2018-01-04T19:38:06.636Z,11.33
2018-01-04T19:40:34.998Z,9.57
2018-01-04T19:43:04.142Z,9.40
2018-01-04T19:45:32.513Z,8.70
2018-01-04T19:48:01.899Z,13.40
2018-01-04T19:50:30.272Z,10.80
2018-01-04T19:52:58.634Z,12.47
2018-01-04T19:55:27.081Z,10.10
2018-01-04T19:57:55.461Z,13.67
2018-01-04T20:00:23.796Z,10.00
2018-01-04T20:02:53.104Z,11.03
2018-01-04T20:05:21.440Z,10.00
2018-01-04T20:07:53.257Z,14.43
2018-01-04T20:10:26.087Z,17.43
2018-01-04T20:12:54.872Z,15.43
2018-01-04T20:15:23.903Z,15.10
2018-01-04T20:17:52.253Z,21.23
2018-01-04T20:20:20.606Z,17.83
2018-01-04T20:22:48.956Z,16.20
2018-01-04T20:25:17.336Z,19.77
2018-01-04T20:27:45.671Z,23.20
2018-01-04T20:30:14.039Z,20.57
2018-01-04T20:32:43.285Z,18.23
2018-01-04T20:35:11.793Z,24.30
2018-01-04T20:37:40.198Z,20.37
2018-01-04T20:40:09.362Z,23.07
2018-01-04T20:42:37.771Z,26.07
2018-01-04T20:45:06.129Z,26.13
2018-01-04T20:47:34.477Z,25.47
2018-01-04T20:50:02.855Z,21.83
2018-01-04T20:52:31.460Z,19.10
2018-01-04T20:54:59.976Z,18.67
2018-01-04T20:57:28.349Z,19.17
2018-01-04T20:59:56.926Z,22.90
2018-01-04T21:02:25.286Z,24.00
2018-01-04T21:04:53.718Z,20.97
2018-01-04T21:07:23.042Z,27.00
2018-01-04T21:09:51.397Z,30.40
2018-01-04T21:12:19.863Z,24.87
2018-01-04T21:14:48.990Z,30.57
2018-01-04T21:17:17.337Z,16.13
2018-01-04T21:19:46.554Z,18.43
2018-01-04T21:22:15.649Z,19.00
2018-01-04T21:24:44.749Z,22.03
2018-01-04T21:27:13.216Z,20.03
2018-01-04T21:29:42.405Z,12.77
2018-01-04T21:32:11.890Z,16.80
2018-01-04T21:34:40.317Z,17.40
2018-01-04T21:37:09.410Z,15.50
2018-01-04T21:39:37.769Z,10.57
2018-01-04T21:42:06.149Z,10.47
2018-01-04T21:44:35.295Z,18.43
2018-01-04T21:47:03.755Z,12.47
2018-01-04T21:49:32.088Z,14.13
2018-01-04T21:52:00.929Z,18.73
2018-01-04T21:54:33.171Z,18.33
2018-01-04T21:57:01.517Z,17.43
2018-01-04T21:59:30.704Z,20.80
2018-01-04T22:01:59.026Z,21.60
2018-01-04T22:04:28.168Z,19.67
2018-01-04T22:06:56.512Z,20.93
2018-01-04T22:09:25.683Z,21.10
2018-01-04T22:11:54.779Z,24.03
2018-01-04T22:14:23.133Z,20.60
2018-01-04T22:16:51.507Z,27.47
2018-01-04T22:19:19.879Z,18.53
2018-01-04T22:21:48.204Z,25.47
2018-01-04T22:24:17.305Z,22.60
2018-01-04T22:26:46.427Z,15.00
2018-01-04T22:29:15.684Z,16.40
2018-01-04T22:31:44.102Z,18.00
2018-01-04T22:34:12.474Z,15.77
2018-01-04T22:36:40.793Z,16.03
2018-01-04T22:39:09.152Z,22.40
2018-01-04T22:41:37.609Z,14.27
2018-01-04T22:44:06.063Z,15.33
2018-01-04T22:46:34.485Z,17.93
2018-01-04T22:49:02.814Z,25.53
2018-01-04T22:51:31.219Z,21.60
2018-01-04T22:54:00.381Z,15.40
2018-01-04T22:56:28.708Z,19.17
2018-01-04T22:58:57.092Z,23.73
2018-01-04T23:01:25.445Z,23.33
2018-01-04T23:03:53.859Z,20.53
2018-01-04T23:06:22.192Z,13.10
2018-01-04T23:08:50.528Z,12.27
2018-01-04T23:11:18.888Z,12.70
2018-01-04T23:13:47.288Z,14.60
2018-01-04T23:16:15.639Z,13.20
2018-01-04T23:18:44.010Z,13.50
2018-01-04T23:21:12.525Z,13.23
2018-01-04T23:23:40.864Z,10.80
2018-01-04T23:26:10.266Z,9.93
2018-01-04T23:28:38.642Z,9.67
2018-01-04T23:31:07.759Z,10.70
2018-01-04T23:33:36.179Z,12.30
2018-01-04T23:36:04.519Z,11.60
2018-01-04T23:38:32.887Z,9.30
2018-01-04T23:41:01.988Z,8.13
2018-01-04T23:43:30.336Z,8.97
2018-01-04T23:45:58.717Z,12.13
2018-01-04T23:48:27.094Z,9.57
2018-01-04T23:50:55.438Z,12.37
2018-01-04T23:53:23.814Z,12.17
2018-01-04T23:55:52.152Z,6.77
2018-01-04T23:58:21.268Z,10.90
